Time;durP1;ratioP1;P1;durP2;ratioP2;P2;SDS_P1;SDS_P2;PMS_P1;PMS_P2;Temp;Humidity;BMP_temperature;BMP_pressure;BME280_temperature;BME280_humidity;BME280_pressure;Samples;Min_cycle;Max_cycle;Signal;HPM_P1;HPM_P2
2023/07/18 00:00:30;;;;;;;17.10;6.95;;;13.60;99.90;;;;;;5116135;27;20051;-39
2023/07/18 00:02:56;;;;;;;15.82;6.35;;;13.60;99.90;;;;;;5097731;27;20434;-39
2023/07/18 00:05:22;;;;;;;10.98;6.13;;;13.60;99.90;;;;;;5116375;27;20432;-39
2023/07/18 00:07:48;;;;;;;18.63;6.72;;;13.60;99.90;;;;;;5115774;27;20496;-39
2023/07/18 00:10:18;;;;;;;16.38;6.30;;;13.50;99.90;;;;;;5114668;27;20074;-39
2023/07/18 00:12:43;;;;;;;16.67;7.57;;;13.60;99.90;;;;;;5115978;27;20494;-39
2023/07/18 00:15:09;;;;;;;15.75;7.80;;;13.60;99.90;;;;;;5104705;27;20066;-39
2023/07/18 00:17:36;;;;;;;20.27;7.72;;;13.50;99.90;;;;;;5115762;27;20058;-39
2023/07/18 00:20:12;;;;;;;12.35;7.57;;;13.50;99.90;;;;;;5115215;27;20104;-39
2023/07/18 00:22:40;;;;;;;14.43;6.85;;;13.50;99.90;;;;;;5097998;27;20039;-39
2023/07/18 00:25:09;;;;;;;12.93;6.57;;;13.50;99.90;;;;;;5109339;27;20378;-39
2023/07/18 00:27:39;;;;;;;17.08;7.13;;;13.40;99.90;;;;;;5103604;27;20077;-39
2023/07/18 00:30:12;;;;;;;13.50;6.93;;;13.40;99.90;;;;;;5114795;27;20401;-39
2023/07/18 00:32:38;;;;;;;18.35;8.55;;;13.40;99.90;;;;;;5115995;27;20396;-39
2023/07/18 00:35:05;;;;;;;14.52;7.30;;;13.40;99.90;;;;;;5096804;27;20836;-39
2023/07/18 00:37:31;;;;;;;21.13;7.75;;;13.40;99.90;;;;;;5116281;27;20043;-39
2023/07/18 00:39:58;;;;;;;16.38;7.47;;;13.40;99.90;;;;;;5096208;27;20476;-39
2023/07/18 00:42:24;;;;;;;17.70;7.45;;;13.40;99.90;;;;;;5116578;27;20047;-39
2023/07/18 00:44:50;;;;;;;13.13;7.45;;;13.30;99.90;;;;;;5111533;27;20055;-39
2023/07/18 00:47:18;;;;;;;14.13;8.07;;;13.20;99.90;;;;;;5115479;27;20086;-39
2023/07/18 00:49:45;;;;;;;18.50;8.07;;;13.20;99.90;;;;;;5114822;27;20130;-39
2023/07/18 00:52:11;;;;;;;13.35;7.22;;;13.20;99.90;;;;;;5115563;27;20054;-39
2023/07/18 00:54:38;;;;;;;18.73;8.65;;;13.20;99.90;;;;;;5115447;27;20047;-39
2023/07/18 00:57:06;;;;;;;15.95;8.00;;;13.20;99.90;;;;;;5096887;27;20112;-39
2023/07/18 00:59:33;;;;;;;18.58;7.60;;;13.30;99.90;;;;;;5114223;27;20047;-39
2023/07/18 01:01:58;;;;;;;13.52;6.72;;;13.30;99.90;;;;;;5115207;27;20075;-39
2023/07/18 01:04:24;;;;;;;14.77;7.28;;;13.40;99.90;;;;;;5115868;27;20175;-39
2023/07/18 01:06:52;;;;;;;16.13;7.25;;;13.30;99.90;;;;;;5097293;27;20047;-39
2023/07/18 01:09:18;;;;;;;14.00;7.07;;;13.30;99.90;;;;;;5114114;27;20051;-39
2023/07/18 01:11:43;;;;;;;13.50;7.72;;;13.30;99.90;;;;;;5125821;27;20335;-39
2023/07/18 01:14:09;;;;;;;12.82;7.40;;;13.20;99.90;;;;;;5129443;27;20124;-39
2023/07/18 01:16:35;;;;;;;14.27;7.57;;;13.20;99.90;;;;;;5106181;27;20760;-39
2023/07/18 01:19:01;;;;;;;18.98;7.43;;;13.20;99.90;;;;;;5114846;27;20300;-39
2023/07/18 01:21:27;;;;;;;17.88;7.50;;;13.20;99.90;;;;;;5115016;27;20039;-39
2023/07/18 01:23:53;;;;;;;19.80;7.53;;;13.20;99.90;;;;;;5109409;27;20387;-39
2023/07/18 01:26:19;;;;;;;13.57;7.80;;;13.10;99.90;;;;;;5114802;27;20047;-39
2023/07/18 01:28:44;;;;;;;16.48;6.95;;;13.10;99.90;;;;;;5115439;27;20453;-39
2023/07/18 01:31:10;;;;;;;14.50;7.63;;;13.10;99.90;;;;;;5094885;28;20055;-39
2023/07/18 01:33:36;;;;;;;15.70;7.95;;;13.10;99.90;;;;;;5114856;27;20080;-39
2023/07/18 01:36:02;;;;;;;17.98;7.95;;;13.10;99.90;;;;;;5114905;27;20183;-39
2023/07/18 01:38:31;;;;;;;18.90;8.13;;;13.20;99.90;;;;;;5118578;27;20289;-39
2023/07/18 01:40:58;;;;;;;15.00;7.00;;;13.10;99.90;;;;;;5134204;27;20043;-39
2023/07/18 01:43:24;;;;;;;16.08;7.80;;;13.10;99.90;;;;;;5125884;27;20078;-39
2023/07/18 01:45:49;;;;;;;18.45;7.85;;;13.10;99.90;;;;;;5114940;27;20596;-39
2023/07/18 01:48:16;;;;;;;14.77;7.68;;;13.10;99.90;;;;;;5114546;27;20043;-39
2023/07/18 01:50:42;;;;;;;19.15;7.15;;;13.10;99.90;;;;;;5113796;27;20079;-39
2023/07/18 01:53:10;;;;;;;18.52;7.60;;;13.10;99.90;;;;;;5114929;27;20074;-39
2023/07/18 01:55:37;;;;;;;18.15;7.90;;;13.10;99.90;;;;;;5113574;27;20335;-39
2023/07/18 01:58:03;;;;;;;14.45;8.00;;;13.10;99.90;;;;;;5114242;27;20169;-39
2023/07/18 02:00:30;;;;;;;21.70;9.10;;;13.20;99.90;;;;;;5111060;27;20292;-39
2023/07/18 02:02:57;;;;;;;14.98;8.05;;;13.20;99.90;;;;;;5112989;27;20046;-39
2023/07/18 02:05:28;;;;;;;13.98;6.68;;;13.20;99.90;;;;;;5112601;27;20054;-39
2023/07/18 02:07:55;;;;;;;17.25;7.95;;;13.20;99.90;;;;;;5113730;27;20577;-39
2023/07/18 02:10:21;;;;;;;13.35;7.50;;;13.30;99.90;;;;;;5113600;27;21024;-39
2023/07/18 02:12:48;;;;;;;14.77;7.43;;;13.30;99.90;;;;;;5113286;27;20047;-39
2023/07/18 02:15:14;;;;;;;13.13;7.53;;;13.30;99.90;;;;;;5101755;27;20649;-39
2023/07/18 02:17:42;;;;;;;14.10;7.47;;;13.30;99.90;;;;;;5114209;27;20050;-39
2023/07/18 02:20:09;;;;;;;14.80;7.80;;;13.20;99.90;;;;;;5113257;27;20055;-39
2023/07/18 02:22:35;;;;;;;13.95;6.75;;;13.20;99.90;;;;;;5114213;27;20047;-39
2023/07/18 02:25:02;;;;;;;12.43;6.72;;;13.20;99.90;;;;;;5108571;27;20138;-39
2023/07/18 02:27:29;;;;;;;19.25;7.35;;;13.20;99.90;;;;;;5096324;28;20047;-39
2023/07/18 02:29:55;;;;;;;16.13;8.15;;;13.20;99.90;;;;;;5114309;27;20054;-39
2023/07/18 02:32:21;;;;;;;18.55;7.45;;;13.10;99.90;;;;;;5116257;27;20047;-39
2023/07/18 02:34:47;;;;;;;16.88;6.95;;;13.10;99.90;;;;;;5117865;27;20058;-39
2023/07/18 02:37:13;;;;;;;14.73;6.75;;;13.10;99.90;;;;;;5098575;27;20051;-39
2023/07/18 02:39:39;;;;;;;12.40;7.35;;;13.10;99.90;;;;;;5117428;27;20051;-39
2023/07/18 02:42:06;;;;;;;16.73;7.80;;;13.10;99.90;;;;;;5117558;27;20452;-39
2023/07/18 02:44:32;;;;;;;14.93;7.05;;;13.10;99.90;;;;;;5115460;27;20502;-39
2023/07/18 02:46:57;;;;;;;12.68;6.60;;;13.00;99.90;;;;;;5118131;27;20440;-39
2023/07/18 02:49:24;;;;;;;13.27;7.30;;;13.00;99.90;;;;;;5116654;27;20092;-39
2023/07/18 02:51:49;;;;;;;17.60;8.00;;;13.00;99.90;;;;;;5099520;27;20051;-39
2023/07/18 02:54:15;;;;;;;11.05;7.35;;;13.00;99.90;;;;;;5117482;27;20042;-39
2023/07/18 02:56:41;;;;;;;16.13;7.93;;;12.90;99.90;;;;;;5117956;27;20085;-39
2023/07/18 02:59:06;;;;;;;15.70;7.53;;;12.90;99.90;;;;;;5116319;27;20418;-39
2023/07/18 03:01:34;;;;;;;16.58;8.10;;;12.90;99.90;;;;;;5111203;27;20053;-39
2023/07/18 03:04:00;;;;;;;16.90;7.50;;;12.80;99.90;;;;;;5138444;27;20046;-39
2023/07/18 03:06:27;;;;;;;13.38;7.38;;;12.80;99.90;;;;;;5138138;27;20134;-39
2023/07/18 03:08:53;;;;;;;14.05;7.75;;;12.80;99.90;;;;;;5118241;27;20510;-39
2023/07/18 03:11:19;;;;;;;14.35;6.90;;;12.70;99.90;;;;;;5138065;27;20042;-39
2023/07/18 03:13:45;;;;;;;13.80;7.63;;;12.80;99.90;;;;;;5137865;27;20415;-39
2023/07/18 03:16:10;;;;;;;13.80;6.90;;;12.70;99.90;;;;;;5106315;27;20050;-39
2023/07/18 03:18:36;;;;;;;18.55;7.18;;;12.70;99.90;;;;;;5099389;27;20057;-39
2023/07/18 03:21:02;;;;;;;16.98;7.95;;;12.70;99.90;;;;;;5115644;27;20039;-39
2023/07/18 03:23:27;;;;;;;15.30;8.02;;;12.80;99.90;;;;;;5111120;27;20083;-39
2023/07/18 03:25:53;;;;;;;15.07;7.53;;;12.80;99.90;;;;;;5137137;27;20047;-39
2023/07/18 03:28:19;;;;;;;17.10;8.20;;;12.80;99.90;;;;;;5137508;27;20133;-39
2023/07/18 03:30:45;;;;;;;13.23;7.22;;;12.80;99.90;;;;;;5117873;27;20614;-39
2023/07/18 03:33:12;;;;;;;16.02;7.53;;;12.90;99.90;;;;;;5137413;27;20047;-39
2023/07/18 03:35:39;;;;;;;16.50;6.55;;;12.90;99.90;;;;;;5119091;27;20145;-39
2023/07/18 03:38:04;;;;;;;17.30;7.32;;;12.90;99.90;;;;;;5136544;27;20059;-39
2023/07/18 03:40:30;;;;;;;16.15;7.85;;;12.90;99.90;;;;;;5117658;27;20065;-39
2023/07/18 03:42:56;;;;;;;23.63;7.25;;;12.90;99.90;;;;;;5131726;27;20044;-39
2023/07/18 03:45:22;;;;;;;20.90;6.93;;;12.90;99.90;;;;;;5137673;27;20551;-39
2023/07/18 03:47:47;;;;;;;17.65;7.18;;;12.90;99.90;;;;;;5136892;27;20046;-39
2023/07/18 03:50:16;;;;;;;14.88;7.28;;;13.00;99.90;;;;;;5136388;27;20046;-39
2023/07/18 03:52:41;;;;;;;19.77;7.85;;;13.00;99.90;;;;;;5137295;27;20449;-39
2023/07/18 03:55:08;;;;;;;17.20;7.63;;;13.00;99.90;;;;;;5137322;27;20054;-39
2023/07/18 03:57:36;;;;;;;22.45;7.50;;;13.00;99.90;;;;;;5137532;27;20046;-39
2023/07/18 04:00:13;;;;;;;18.23;7.95;;;13.10;99.90;;;;;;5135577;27;20061;-39
2023/07/18 04:02:39;;;;;;;19.13;8.35;;;13.10;99.90;;;;;;5129925;27;20447;-39
2023/07/18 04:05:05;;;;;;;18.50;7.57;;;13.10;99.90;;;;;;5115276;27;20462;-39
2023/07/18 04:07:32;;;;;;;16.95;7.30;;;13.20;99.90;;;;;;5115463;27;20051;-39
2023/07/18 04:09:57;;;;;;;17.25;7.38;;;13.20;99.90;;;;;;5115380;27;20578;-39
2023/07/18 04:12:23;;;;;;;19.65;7.60;;;13.30;99.90;;;;;;5116959;27;20473;-39
2023/07/18 04:14:49;;;;;;;13.80;7.10;;;13.30;99.90;;;;;;5106911;27;20096;-39
2023/07/18 04:17:16;;;;;;;13.43;6.82;;;13.40;99.90;;;;;;5112762;27;20498;-39
2023/07/18 04:19:42;;;;;;;22.95;7.80;;;13.40;99.90;;;;;;5115281;27;20458;-39
2023/07/18 04:22:07;;;;;;;16.02;7.18;;;13.50;99.90;;;;;;5116031;27;20043;-39
2023/07/18 04:24:34;;;;;;;16.15;8.77;;;13.60;99.90;;;;;;5109562;27;20469;-39
2023/07/18 04:27:00;;;;;;;16.75;8.18;;;13.70;99.90;;;;;;5115878;27;20103;-39
2023/07/18 04:29:25;;;;;;;16.52;7.28;;;13.80;99.90;;;;;;5114983;27;20043;-39
2023/07/18 04:31:52;;;;;;;16.30;7.50;;;13.80;99.90;;;;;;5068585;27;20166;-39
2023/07/18 04:34:18;;;;;;;16.35;7.05;;;13.90;99.90;;;;;;5137321;27;20159;-39
2023/07/18 04:36:44;;;;;;;13.63;7.00;;;14.00;99.90;;;;;;5134344;27;20050;-39
2023/07/18 04:39:10;;;;;;;21.02;7.28;;;14.00;99.90;;;;;;5123894;27;20939;-39
2023/07/18 04:41:36;;;;;;;12.73;7.28;;;14.00;99.90;;;;;;5135931;27;20485;-39
2023/07/18 04:44:02;;;;;;;18.02;7.43;;;14.00;99.90;;;;;;5130627;27;20051;-39
2023/07/18 04:46:27;;;;;;;19.30;7.43;;;14.00;99.90;;;;;;5089792;27;20133;-39
2023/07/18 04:48:53;;;;;;;18.48;7.18;;;14.10;99.90;;;;;;5135165;27;20428;-39
2023/07/18 04:51:19;;;;;;;22.20;7.95;;;14.10;99.90;;;;;;5116154;27;20055;-39
2023/07/18 04:53:44;;;;;;;18.05;7.70;;;14.10;99.90;;;;;;5135713;27;20039;-39
2023/07/18 04:56:10;;;;;;;17.27;7.47;;;14.40;99.90;;;;;;5135903;27;20050;-39
2023/07/18 04:58:35;;;;;;;13.38;8.23;;;14.60;99.90;;;;;;5135572;27;20050;-39
2023/07/18 05:01:02;;;;;;;18.88;7.53;;;15.00;99.90;;;;;;5135449;27;20103;-39
2023/07/18 05:03:28;;;;;;;15.05;7.28;;;15.40;99.90;;;;;;5137027;27;20059;-39
2023/07/18 05:05:56;;;;;;;15.05;6.50;;;15.60;99.90;;;;;;5136921;27;20052;-39
2023/07/18 05:08:21;;;;;;;16.83;7.45;;;15.90;99.90;;;;;;5118137;27;20031;-39
2023/07/18 05:10:47;;;;;;;16.58;7.28;;;16.10;99.90;;;;;;5115983;27;20107;-39
2023/07/18 05:13:13;;;;;;;15.82;6.85;;;16.60;99.90;;;;;;5115674;27;20051;-40
2023/07/18 05:15:42;;;;;;;10.77;6.30;;;16.80;99.90;;;;;;5084414;27;20039;-40
2023/07/18 05:18:07;;;;;;;18.73;6.95;;;16.70;99.90;;;;;;5114467;27;20039;-38
2023/07/18 05:20:33;;;;;;;13.95;7.50;;;16.60;99.90;;;;;;5113993;27;20049;-40
2023/07/18 05:22:59;;;;;;;13.50;6.40;;;16.90;99.90;;;;;;5113051;27;20515;-40
2023/07/18 05:25:25;;;;;;;15.43;6.40;;;16.90;99.90;;;;;;5110184;27;20129;-39
2023/07/18 05:27:51;;;;;;;18.42;6.93;;;16.90;99.90;;;;;;5114850;27;20387;-40
2023/07/18 05:30:18;;;;;;;19.25;6.82;;;16.80;99.90;;;;;;5129919;27;20085;-40
2023/07/18 05:32:45;;;;;;;13.57;6.05;;;17.50;99.90;;;;;;5097412;27;20056;-40
2023/07/18 05:35:13;;;;;;;16.13;6.07;;;18.70;99.90;;;;;;5110840;27;20211;-41
2023/07/18 05:37:40;;;;;;;12.38;6.13;;;19.80;99.90;;;;;;5115121;27;20104;-40
2023/07/18 05:40:09;;;;;;;11.38;5.45;;;20.60;99.90;;;;;;5113710;27;20578;-40
2023/07/18 05:42:36;;;;;;;14.43;6.78;;;20.70;99.90;;;;;;5114982;27;20051;-41
2023/07/18 05:45:01;;;;;;;12.00;5.18;;;20.40;99.90;;;;;;5130042;27;20490;-40
2023/07/18 05:47:27;;;;;;;13.52;5.88;;;20.00;99.90;;;;;;5135190;27;20519;-41
2023/07/18 05:49:52;;;;;;;13.07;5.82;;;19.50;99.90;;;;;;5134395;27;20043;-40
2023/07/18 05:52:18;;;;;;;11.60;5.72;;;19.20;99.90;;;;;;5135034;27;20038;-40
2023/07/18 05:54:45;;;;;;;13.07;5.97;;;19.10;99.90;;;;;;5134732;27;20043;-40
2023/07/18 05:57:10;;;;;;;15.30;6.07;;;19.50;99.90;;;;;;5135224;27;20481;-40
2023/07/18 05:59:36;;;;;;;16.17;5.65;;;19.80;99.90;;;;;;5133900;27;20460;-41
2023/07/18 06:02:05;;;;;;;16.42;5.68;;;19.80;99.90;;;;;;5116506;27;20330;-41
2023/07/18 06:04:30;;;;;;;16.20;5.30;;;19.90;99.90;;;;;;5135725;27;20046;-41
2023/07/18 06:06:56;;;;;;;17.98;6.53;;;19.70;99.90;;;;;;5136608;27;20456;-41
2023/07/18 06:09:22;;;;;;;13.55;5.72;;;19.20;99.90;;;;;;5119348;27;20057;-41
2023/07/18 06:11:47;;;;;;;16.73;6.18;;;18.90;99.90;;;;;;5084037;27;20055;-40
2023/07/18 06:14:13;;;;;;;15.80;6.50;;;18.40;99.90;;;;;;5103553;27;20046;-38
2023/07/18 06:16:39;;;;;;;11.52;5.30;;;18.10;99.90;;;;;;5104464;27;20605;-39
2023/07/18 06:19:04;;;;;;;13.35;5.68;;;18.00;99.90;;;;;;5105342;27;20047;-39
2023/07/18 06:21:30;;;;;;;11.02;5.75;;;17.80;99.90;;;;;;5105988;27;20350;-38
2023/07/18 06:23:57;;;;;;;15.23;5.82;;;17.70;99.90;;;;;;5115548;27;20107;-39
2023/07/18 06:26:23;;;;;;;17.00;6.03;;;18.00;99.90;;;;;;5130125;27;20118;-38
2023/07/18 06:28:49;;;;;;;11.82;5.85;;;18.00;99.90;;;;;;5118034;27;20047;-38
2023/07/18 06:31:15;;;;;;;14.02;5.28;;;17.80;99.90;;;;;;5119591;27;20502;-38
2023/07/18 06:33:41;;;;;;;8.82;4.65;;;17.80;99.90;;;;;;5119751;27;20051;-38
2023/07/18 06:36:06;;;;;;;9.25;5.40;;;17.90;99.90;;;;;;5118053;27;20047;-40
2023/07/18 06:38:32;;;;;;;20.67;5.78;;;18.40;99.90;;;;;;5080240;27;20129;-38
2023/07/18 06:40:58;;;;;;;11.27;5.15;;;18.40;99.90;;;;;;5119695;27;20039;-38
2023/07/18 06:43:24;;;;;;;12.80;4.95;;;18.80;99.90;;;;;;5119491;27;20412;-39
2023/07/18 06:45:50;;;;;;;13.48;4.72;;;20.10;99.90;;;;;;5116816;27;20155;-39
2023/07/18 06:48:16;;;;;;;11.07;5.43;;;21.60;99.90;;;;;;5079644;27;20051;-41
2023/07/18 06:50:47;;;;;;;11.32;4.80;;;23.20;99.90;;;;;;5096875;27;20082;-39
2023/07/18 06:53:20;;;;;;;15.82;5.45;;;24.20;99.90;;;;;;5116790;27;20066;-39
2023/07/18 06:55:48;;;;;;;12.82;4.30;;;25.10;99.90;;;;;;5098817;27;20481;-40
2023/07/18 06:58:15;;;;;;;11.38;4.53;;;25.10;99.90;;;;;;5118558;27;20043;-39
2023/07/18 07:00:41;;;;;;;13.52;5.63;;;24.90;99.90;;;;;;5116819;27;20075;-40
2023/07/18 07:03:08;;;;;;;10.32;4.82;;;24.10;99.90;;;;;;5101346;27;20112;-39
2023/07/18 07:05:43;;;;;;;9.68;5.03;;;23.50;99.90;;;;;;5119870;27;20428;-39
2023/07/18 07:08:12;;;;;;;10.07;4.63;;;23.60;99.90;;;;;;5107193;27;20065;-40
2023/07/18 07:10:42;;;;;;;13.05;5.43;;;24.10;99.90;;;;;;5078519;27;20512;-40
2023/07/18 07:13:09;;;;;;;12.25;4.70;;;24.70;99.90;;;;;;5098271;27;20048;-40
2023/07/18 07:15:35;;;;;;;15.18;4.72;;;25.70;99.90;;;;;;5101826;27;20071;-41
2023/07/18 07:18:04;;;;;;;19.85;5.72;;;26.30;99.90;;;;;;5098437;27;20490;-40
2023/07/18 07:20:31;;;;;;;8.55;4.30;;;27.00;99.90;;;;;;5098004;27;20054;-41
2023/07/18 07:22:57;;;;;;;12.27;5.38;;;26.70;99.90;;;;;;5096332;27;20501;-40
2023/07/18 07:25:27;;;;;;;15.50;5.10;;;26.50;99.90;;;;;;5112261;27;20065;-41
2023/07/18 07:27:52;;;;;;;15.95;4.65;;;26.10;99.90;;;;;;5116704;27;20084;-41
2023/07/18 07:30:19;;;;;;;13.25;5.10;;;25.70;99.90;;;;;;5115717;27;20428;-42
2023/07/18 07:32:47;;;;;;;10.70;4.88;;;25.20;99.90;;;;;;5116583;27;20039;-42
2023/07/18 07:35:14;;;;;;;11.27;5.32;;;24.70;99.90;;;;;;5116850;27;20061;-41
2023/07/18 07:37:40;;;;;;;12.15;5.07;;;24.30;99.90;;;;;;5116777;27;20091;-41
2023/07/18 07:40:09;;;;;;;11.93;4.95;;;23.90;99.90;;;;;;5115519;27;20055;-41
2023/07/18 07:42:36;;;;;;;12.45;4.78;;;23.50;99.90;;;;;;5117314;27;20454;-41
2023/07/18 07:45:01;;;;;;;10.88;4.95;;;23.40;99.90;;;;;;5097005;27;20054;-42
2023/07/18 07:47:27;;;;;;;13.90;5.20;;;23.60;99.90;;;;;;5117249;27;20043;-41
2023/07/18 07:49:53;;;;;;;9.70;4.75;;;23.20;99.90;;;;;;5115493;27;20517;-40
2023/07/18 07:52:18;;;;;;;10.77;5.30;;;22.90;99.90;;;;;;5117820;27;20122;-41
2023/07/18 07:54:44;;;;;;;14.88;5.47;;;22.70;99.90;;;;;;5117643;27;20138;-41
2023/07/18 07:57:10;;;;;;;12.68;5.22;;;22.60;99.90;;;;;;5117886;27;20534;-41
2023/07/18 07:59:36;;;;;;;11.88;5.10;;;22.30;99.90;;;;;;5115799;27;20071;-41
2023/07/18 08:02:03;;;;;;;13.60;5.28;;;22.00;99.90;;;;;;5116756;27;20468;-41
2023/07/18 08:04:28;;;;;;;14.18;4.97;;;22.00;99.90;;;;;;5078115;28;20087;-41
2023/07/18 08:06:55;;;;;;;9.93;4.60;;;22.00;99.90;;;;;;5108625;27;20147;-43
2023/07/18 08:09:51;;;;;;;14.13;5.03;;;22.00;99.90;;;;;;5115481;27;20256;-43
2023/07/18 08:12:17;;;;;;;12.18;4.70;;;22.00;99.90;;;;;;5012111;28;20547;-41
2023/07/18 08:14:44;;;;;;;11.93;4.68;;;22.00;99.90;;;;;;5010874;28;20045;-41
2023/07/18 08:17:10;;;;;;;13.35;5.45;;;21.80;99.90;;;;;;5006736;28;20405;-40
2023/07/18 08:19:35;;;;;;;14.15;5.32;;;21.90;99.90;;;;;;4990072;28;20211;-41
2023/07/18 08:22:02;;;;;;;10.57;5.10;;;22.20;99.90;;;;;;5002685;28;20061;-42
2023/07/18 08:24:29;;;;;;;12.73;5.35;;;22.20;99.90;;;;;;5011904;28;20049;-41
2023/07/18 08:26:55;;;;;;;12.68;4.60;;;22.20;99.90;;;;;;5012187;28;20053;-42
2023/07/18 08:29:24;;;;;;;15.73;5.35;;;22.30;99.90;;;;;;5010944;28;20053;-41
2023/07/18 08:31:51;;;;;;;16.33;5.22;;;22.10;99.90;;;;;;5010458;28;20041;-41
2023/07/18 08:34:17;;;;;;;9.63;4.75;;;22.20;99.90;;;;;;5009507;28;20947;-41
2023/07/18 08:36:43;;;;;;;13.65;4.43;;;22.40;99.90;;;;;;4995326;28;20053;-41
2023/07/18 08:39:08;;;;;;;11.85;5.05;;;22.80;99.90;;;;;;5018810;28;20410;-41
2023/07/18 08:41:34;;;;;;;15.93;5.05;;;23.00;99.90;;;;;;5031418;28;20057;-41
2023/07/18 08:44:00;;;;;;;16.27;5.88;;;23.30;99.90;;;;;;4999005;28;20053;-41
2023/07/18 08:46:26;;;;;;;9.13;4.75;;;23.30;99.90;;;;;;5009408;28;20118;-41
2023/07/18 08:48:54;;;;;;;12.93;5.03;;;23.60;99.90;;;;;;5065865;27;20927;-41
2023/07/18 08:51:21;;;;;;;14.38;5.35;;;23.70;99.90;;;;;;5107989;27;20077;-41
2023/07/18 08:53:47;;;;;;;9.77;4.32;;;23.70;99.90;;;;;;5089528;27;20136;-41
2023/07/18 08:56:13;;;;;;;14.70;4.82;;;23.80;99.90;;;;;;5104383;27;20695;-41
2023/07/18 08:58:39;;;;;;;15.38;5.55;;;23.80;99.90;;;;;;5088198;27;20488;-40
2023/07/18 09:01:05;;;;;;;11.15;5.00;;;23.60;99.90;;;;;;5113857;27;20044;-41
2023/07/18 09:03:31;;;;;;;10.77;4.13;;;23.70;99.90;;;;;;5075000;27;20114;-42
2023/07/18 09:06:01;;;;;;;12.77;4.30;;;23.90;99.90;;;;;;5092985;27;20189;-41
2023/07/18 09:08:27;;;;;;;11.95;4.60;;;24.00;99.90;;;;;;5108345;27;20054;-42
2023/07/18 09:11:03;;;;;;;10.52;4.45;;;23.80;99.90;;;;;;5110711;27;20042;-41
2023/07/18 09:13:36;;;;;;;10.48;4.65;;;23.60;99.90;;;;;;5090999;27;20051;-41
2023/07/18 09:16:17;;;;;;;14.32;5.80;;;23.60;99.90;;;;;;5106853;27;20108;-41
2023/07/18 09:18:52;;;;;;;15.88;6.30;;;23.60;99.90;;;;;;5110736;27;20035;-41
2023/07/18 09:21:19;;;;;;;10.45;4.75;;;23.50;99.90;;;;;;5112047;27;20047;-41
2023/07/18 09:23:45;;;;;;;14.45;5.65;;;23.60;99.90;;;;;;5109394;27;20035;-40
2023/07/18 09:26:14;;;;;;;11.80;5.18;;;23.70;99.90;;;;;;5109979;27;20046;-41
2023/07/18 09:28:40;;;;;;;10.55;4.05;;;23.80;99.90;;;;;;5109984;27;20038;-41
2023/07/18 09:31:19;;;;;;;16.10;4.35;;;23.60;99.90;;;;;;5110612;27;20092;-42
2023/07/18 09:33:50;;;;;;;9.82;4.07;;;23.90;99.90;;;;;;5114372;27;20092;-41
2023/07/18 09:36:25;;;;;;;12.20;4.15;;;23.80;99.90;;;;;;5104524;27;20817;-41
2023/07/18 09:38:51;;;;;;;10.98;4.18;;;23.80;99.90;;;;;;5071388;28;20055;-42
2023/07/18 09:41:21;;;;;;;14.05;4.35;;;23.70;99.90;;;;;;5106956;27;20040;-42
2023/07/18 09:43:48;;;;;;;13.07;4.72;;;23.70;99.90;;;;;;5115918;27;20043;-39
2023/07/18 09:46:15;;;;;;;10.18;4.30;;;23.60;99.90;;;;;;5119271;27;20469;-39
2023/07/18 09:48:42;;;;;;;12.50;4.50;;;23.50;99.90;;;;;;5115746;27;20316;-39
2023/07/18 09:51:14;;;;;;;11.43;4.88;;;23.60;99.90;;;;;;5093357;27;20067;-39
2023/07/18 09:53:44;;;;;;;10.95;4.55;;;23.50;99.90;;;;;;5112363;27;20089;-39
2023/07/18 09:56:14;;;;;;;11.35;4.45;;;23.70;99.90;;;;;;5105260;27;20055;-40
2023/07/18 09:58:42;;;;;;;15.93;5.20;;;23.70;99.90;;;;;;5112027;27;20054;-39
2023/07/18 10:01:16;;;;;;;11.88;4.65;;;23.70;99.90;;;;;;5111550;27;20126;-40
2023/07/18 10:03:41;;;;;;;11.10;4.40;;;23.70;99.90;;;;;;5107113;27;20051;-41
2023/07/18 10:06:12;;;;;;;12.65;4.97;;;23.80;99.90;;;;;;5107481;27;20095;-41
2023/07/18 10:08:40;;;;;;;11.00;4.10;;;23.90;99.90;;;;;;5110569;27;20035;-41
2023/07/18 10:11:11;;;;;;;11.95;4.97;;;23.80;99.90;;;;;;5115631;27;20062;-42
2023/07/18 10:13:55;;;;;;;10.63;4.05;;;24.00;99.90;;;;;;5117006;27;20039;-40
2023/07/18 10:16:22;;;;;;;13.02;4.93;;;24.20;99.90;;;;;;5113428;27;20049;-40
2023/07/18 10:18:52;;;;;;;15.02;4.75;;;24.20;99.90;;;;;;5112077;27;20149;-41
2023/07/18 10:21:32;;;;;;;12.13;4.05;;;24.40;99.90;;;;;;5095514;27;20043;-42
2023/07/18 10:24:19;;;;;;;10.95;4.63;;;24.60;99.90;;;;;;5111593;27;20054;-42
2023/07/18 10:26:57;;;;;;;8.80;4.03;;;24.70;99.90;;;;;;5108544;27;20047;-41
2023/07/18 10:29:23;;;;;;;11.10;4.03;;;24.80;99.90;;;;;;5110089;27;20050;-39
2023/07/18 10:31:49;;;;;;;11.70;4.22;;;24.90;99.90;;;;;;5109487;27;20464;-45
2023/07/18 10:34:16;;;;;;;9.45;3.42;;;25.00;99.90;;;;;;5114874;27;20122;-40
2023/07/18 10:36:54;;;;;;;9.13;3.70;;;25.20;99.90;;;;;;5115382;27;20092;-39
2023/07/18 10:39:34;;;;;;;6.65;2.78;;;25.30;99.90;;;;;;5112264;27;20162;-39
2023/07/18 10:42:08;;;;;;;5.15;1.92;;;25.30;99.90;;;;;;5115939;27;20040;-42
2023/07/18 10:44:37;;;;;;;5.85;2.47;;;25.20;99.90;;;;;;5111338;27;20043;-42
2023/07/18 10:47:16;;;;;;;12.60;3.58;;;25.10;99.90;;;;;;5111771;27;20287;-41
2023/07/18 10:49:43;;;;;;;6.40;2.35;;;25.20;99.90;;;;;;5083699;27;20372;-42
2023/07/18 10:52:09;;;;;;;11.93;3.13;;;25.40;99.90;;;;;;5085242;27;20477;-41
2023/07/18 10:54:35;;;;;;;6.47;2.40;;;25.70;99.90;;;;;;5109602;27;20512;-40
2023/07/18 10:57:03;;;;;;;6.07;2.13;;;25.90;99.90;;;;;;5115532;27;20139;-41
2023/07/18 10:59:29;;;;;;;6.88;2.10;;;25.90;99.60;;;;;;5115419;27;20496;-39
2023/07/18 11:01:58;;;;;;;7.60;2.85;;;25.80;99.90;;;;;;5114687;27;20042;-42
2023/07/18 11:04:24;;;;;;;7.25;2.58;;;25.50;99.90;;;;;;5106753;27;20039;-42
2023/07/18 11:06:55;;;;;;;7.65;2.42;;;25.30;99.90;;;;;;5090702;27;20375;-42
2023/07/18 11:09:21;;;;;;;10.57;2.45;;;25.60;99.90;;;;;;5108598;27;20042;-42
2023/07/18 11:11:47;;;;;;;6.00;2.63;;;25.80;99.90;;;;;;5109462;27;20043;-41
2023/07/18 11:14:13;;;;;;;9.27;3.17;;;25.70;99.90;;;;;;5108808;27;20824;-42
2023/07/18 11:16:38;;;;;;;7.43;2.63;;;25.50;99.90;;;;;;5088825;27;20124;-42
2023/07/18 11:19:07;;;;;;;5.70;2.00;;;25.50;99.90;;;;;;5109476;27;20488;-41
2023/07/18 11:21:35;;;;;;;7.65;2.53;;;25.30;99.90;;;;;;5109869;27;20035;-42
2023/07/18 11:24:01;;;;;;;7.78;2.63;;;25.30;99.90;;;;;;5113040;27;20047;-44
2023/07/18 11:26:27;;;;;;;7.38;2.55;;;25.10;99.90;;;;;;5114506;27;20472;-42
2023/07/18 11:28:53;;;;;;;10.73;3.22;;;25.20;99.90;;;;;;5116147;27;20050;-41
2023/07/18 11:31:38;;;;;;;8.73;2.67;;;25.30;99.90;;;;;;5114754;27;20389;-41
2023/07/18 11:34:05;;;;;;;6.63;2.20;;;25.50;99.90;;;;;;5113670;27;20039;-43
2023/07/18 11:36:32;;;;;;;12.13;3.30;;;25.20;99.90;;;;;;5115707;27;20042;-41
2023/07/18 11:39:03;;;;;;;6.57;2.83;;;25.10;99.90;;;;;;5093000;27;20051;-40
2023/07/18 11:41:40;;;;;;;7.00;3.38;;;24.90;99.90;;;;;;5095034;27;20071;-42
2023/07/18 11:44:08;;;;;;;9.15;3.03;;;24.90;99.90;;;;;;5111924;27;20429;-43
2023/07/18 11:46:38;;;;;;;7.72;2.97;;;25.10;99.90;;;;;;5114991;27;20142;-41
2023/07/18 11:49:08;;;;;;;5.88;2.30;;;25.20;99.90;;;;;;5113736;27;20117;-43
2023/07/18 11:51:34;;;;;;;7.32;1.88;;;25.20;99.60;;;;;;5117840;27;20496;-40
2023/07/18 11:54:01;;;;;;;5.85;2.22;;;25.20;99.90;;;;;;5091128;27;20046;-42
2023/07/18 11:56:28;;;;;;;5.80;1.90;;;25.20;99.30;;;;;;5108861;27;20441;-41
2023/07/18 11:58:54;;;;;;;8.75;2.38;;;25.10;99.60;;;;;;5100567;27;20696;-43
2023/07/18 12:01:20;;;;;;;6.40;2.10;;;25.00;99.70;;;;;;5107698;27;20031;-42
2023/07/18 12:03:45;;;;;;;6.55;2.83;;;24.90;99.30;;;;;;5108928;27;20039;-41
2023/07/18 12:06:11;;;;;;;7.00;1.80;;;24.80;98.00;;;;;;5095366;27;20572;-42
2023/07/18 12:08:37;;;;;;;6.97;2.38;;;24.70;98.50;;;;;;5111140;27;20046;-42
2023/07/18 12:11:09;;;;;;;9.38;2.78;;;24.40;99.30;;;;;;5112472;27;20043;-40
2023/07/18 12:13:36;;;;;;;6.72;2.53;;;24.40;99.90;;;;;;5110345;27;20050;-40
2023/07/18 12:16:01;;;;;;;11.05;3.25;;;24.20;99.90;;;;;;5083668;27;20067;-42
2023/07/18 12:18:27;;;;;;;9.90;3.05;;;24.10;99.90;;;;;;5106398;27;20243;-40
2023/07/18 12:20:53;;;;;;;12.27;3.00;;;24.10;99.90;;;;;;5104311;27;20042;-43
2023/07/18 12:23:19;;;;;;;8.38;3.03;;;24.10;99.90;;;;;;5066615;27;20078;-40
2023/07/18 12:25:44;;;;;;;9.18;3.25;;;23.90;99.90;;;;;;5107646;27;20409;-40
2023/07/18 12:28:11;;;;;;;6.30;2.45;;;23.90;99.90;;;;;;5102250;27;20035;-40
2023/07/18 12:30:37;;;;;;;5.93;2.35;;;23.80;99.90;;;;;;5103409;27;20050;-41
2023/07/18 12:33:03;;;;;;;13.40;3.00;;;23.70;99.90;;;;;;5104252;27;20101;-41
2023/07/18 12:35:29;;;;;;;8.38;2.90;;;23.70;99.90;;;;;;5109727;27;20126;-40
2023/07/18 12:37:54;;;;;;;8.52;3.15;;;23.60;99.90;;;;;;5084565;27;20409;-41